Aeroporto :
LOGIN :

Iscrizione | Disclaimer

   EN    FR    IT 

 










Sommario :    VFR   VFR Marginale   IFR   IFR Intensivo   IFR Molto Intensivo
Visibilità : 
Base nubi : 
>= 8 km
>= 3000ft
5 / 8 km
1000 / 3000 ft
1500m / 5 km
500 / 1000 ft
800 / 1500m
200 / 500 ft
< 800m
< 200 ft
Simboli :   Temporali  Nebbia  Neve Forte  Precipitazioni Forti  Vento > 20 kt
SIGMETs :   Varie  Temporali  Ghiacco  Turbolenza  Onda orograficha  Ceneri Vulcaniche






- Altitudine del aeroporto : 412 ft
- Codice IATA : ORE


LFOJ - Orleans

ULTIMO METAR :
  • 230830Z AUTO 21014KT 9999 BKN012 OVC018 18/15 Q1008 BECMG BKN030

METARs OBSOLETI :
  • 230800Z AUTO 21011KT 9999 OVC010 17/15 Q1008 BECMG BKN025
  • 230730Z AUTO 21010KT 9999 BKN009 OVC015 17/15 Q1008 BECMG BKN025
  • 230700Z AUTO 21010KT 9999 OVC007 16/15 Q1008 BECMG BKN025
  • 230630Z AUTO 21011KT 8000 OVC004 16/15 Q1008 BECMG BKN025
  • 230600Z AUTO 21011KT 6000 OVC003 15/15 Q1008 TEMPO 4500 BR BECMG BKN010

TAF TAF LFOJ
Valido dal 23 a 09 ore il 24 a 09 ore UTC


230800Z 2309/2409 20015KT 9999 BKN014
BECMG 2309/2310 BKN030
PROB40
TEMPO 2313/2316 23015G27KT 4900 -SHRA SCT030CB
TEMPO 2317/2321 27017G30KT 2000 SHRA BKN014 BKN030CB
PROB30
TEMPO 2318/2321 -TSRA
BECMG 2321/2323 26010KT
PROB40
TEMPO 2405/2407 SCT005



MetMap, La meteo Aeronautica in un colpo d'occhio ! - Copyright ORBIFLY Dicembre 2007 - Disclaimer

ORBIFLY MET'MAP TEAM :

Programmazione e sviluppo : Alexandra Zaïnal
Concezione : Baudouin d'Aumeries
Aiuto per la programmazione : Marc-Olivier Méhu
Supporto tecnico e logistico : Manuel Goepfert
Aiuto per la traduzione : Arnaldo La Scala

Contatto : metmap@orbifly.com




FONTI E CREDITI :

   NOAA